Sattler, Texas
Current Conditions -  °F | °C
As of 7:51 AM on Monday 26 Jan 2015 (Local Time) from KBAZ Reporting Station
Clear Clear  
Wind Chill: 40°   Ceiling: Unl
Heat Index: 40°   Visibility: 10mi
Dew Point: 33°   Wind: 0mph
Humidity: 77%   Direction: NA
Pressure: 30.26"   Gusts: NA
Location:  29.8812°N, 98.2387°W
Report Text: KBAZ 261351Z 00000KT 10SM CLR 04/01 A3026 RMK AO2 SLP245 T00440006
Loading
Personal Weather Stations






























Interactive Weather Map New forecast layout! Learn more

10-Day Weather Forecast

Advertisements
Track Severe Weather on mobile